Whigham, Georgia
Current Conditions -  °F | °C
As of 4:35 PM on Saturday 25 Oct 2014 (Local Time) from KBGE Reporting Station
Clear Clear  
Wind Chill: 81°   Ceiling: Unl
Heat Index: 81°   Visibility: 10mi
Dew Point: 41°   Wind: 8mph
Humidity: 24%   Direction: 320°NW
Pressure: 30"   Gusts: NA
Location:  30.88°N, 84.32°W
Report Text: KBGE 252035Z AUTO 32007KT 280V340 10SM CLR 27/05 A3000 RMK AO2
Loading
Personal Weather Stations






























Interactive Weather Map
Tropical Storm Tracking
New forecast layout! Learn more

10-Day Weather Forecast

Advertisements
Track Severe Weather on mobile